Time;durP1;ratioP1;P1;durP2;ratioP2;P2;SDS_P1;SDS_P2;PMS_P1;PMS_P2;Temp;Humidity;BMP_temperature;BMP_pressure;BME280_temperature;BME280_humidity;BME280_pressure;Samples;Min_cycle;Max_cycle;Signal;HPM_P1;HPM_P2
2021/04/02 00:39:46;;;;;;;;;27.00;24.00;;;;;19.54;40.02;98340.59;5634885;27;6550144;-59
2021/04/02 00:42:51;;;;;;;;;26.67;24.67;;;;;19.42;39.97;98327.31;5602915;28;4342861;-59
2021/04/02 00:45:54;;;;;;;;;27.00;26.00;;;;;19.45;40.55;98323.19;5612023;28;3931477;-59
2021/04/02 00:49:01;;;;;;;;;30.13;28.50;;;;;19.38;41.40;98329.00;5618235;28;6544904;-59
2021/04/02 00:52:08;;;;;;;;;27.00;25.29;;;;;19.40;41.36;98334.19;5595604;28;6516811;-59
2021/04/02 00:55:17;;;;;;;;;28.67;26.67;;;;;19.36;41.87;98325.72;5606373;28;5781420;-59
2021/04/02 00:58:28;;;;;;;;;29.00;24.33;;;;;19.32;41.83;98335.63;5606406;28;5759536;-59
2021/04/02 01:01:36;;;;;;;;;26.29;23.71;;;;;19.28;42.39;98337.31;5624961;28;6548076;-60
2021/04/02 01:04:41;;;;;;;;;26.67;24.00;;;;;19.18;42.58;98333.88;5590229;28;4321022;-59
2021/04/02 01:07:49;;;;;;;;;28.75;24.38;;;;;19.02;43.30;98342.25;5581286;28;6535569;-59
2021/04/02 01:11:02;;;;;;;;;25.00;23.71;;;;;18.99;43.41;98334.66;5621524;28;5800266;-58
2021/04/02 01:14:06;;;;;;;;;24.71;23.00;;;;;18.93;43.97;98341.25;5610452;28;6504601;-58
2021/04/02 01:17:14;;;;;;;;;25.75;24.38;;;;;18.82;44.77;98347.91;5616593;28;6534591;-59
2021/04/02 01:20:26;;;;;;;;;27.29;23.71;;;;;18.73;45.18;98368.75;5618037;28;5793861;-59
2021/04/02 01:23:43;;;;;;;;;30.14;27.29;;;;;18.57;46.11;98378.19;5625038;28;5793908;-59
2021/04/02 01:27:21;;;;;;;;;28.00;25.00;;;;;18.35;46.94;98380.53;5619116;28;3954385;-58
2021/04/02 01:30:26;;;;;;;;;25.29;24.00;;;;;18.25;47.22;98386.88;5608501;28;6513709;-59
2021/04/02 01:33:33;;;;;;;;;28.00;25.00;;;;;18.16;47.67;98370.28;5629581;28;5783878;-59
2021/04/02 01:36:43;;;;;;;;;27.57;23.43;;;;;18.09;47.68;98364.31;5592880;28;6525129;-59
2021/04/02 01:39:56;;;;;;;;;27.00;24.83;;;;;18.12;47.83;98355.59;5638806;28;5771025;-59
2021/04/02 01:43:13;;;;;;;;;27.00;25.00;;;;;18.08;47.97;98356.44;5624182;28;5781469;-59
2021/04/02 01:46:22;;;;;;;;;22.75;21.75;;;;;18.03;47.81;98340.91;5573032;28;6529390;-59
2021/04/02 01:49:30;;;;;;;;;22.43;20.43;;;;;17.99;47.98;98333.56;5637880;28;5777354;-59
2021/04/02 01:52:36;;;;;;;;;23.00;20.00;;;;;17.97;48.43;98339.31;5635512;28;3914821;-59
2021/04/02 01:55:42;;;;;;;;;21.67;19.67;;;;;17.95;48.53;98340.69;5630204;28;5775243;-59
2021/04/02 01:58:49;;;;;;;;;21.29;20.00;;;;;17.99;48.01;98344.47;5617424;28;6495995;-59
2021/04/02 02:01:57;;;;;;;;;21.67;18.67;;;;;18.00;47.86;98349.66;5612915;28;4376264;-59
2021/04/02 02:05:07;;;;;;;;;21.00;18.33;;;;;17.93;48.33;98349.16;5618444;28;5734516;-59
2021/04/02 02:08:14;;;;;;;;;20.29;18.71;;;;;17.76;48.46;98326.91;5634017;28;6463697;-59
2021/04/02 02:11:29;;;;;;;;;20.00;18.86;;;;;17.88;48.43;98360.09;5640206;28;6491812;-59
2021/04/02 02:14:43;;;;;;;;;16.71;16.00;;;;;17.88;48.36;98360.09;5639676;28;6491820;-59
2021/04/02 02:18:04;;;;;;;;;18.14;17.14;;;;;17.83;48.84;98357.41;5613371;28;5751315;-59
2021/04/02 02:21:14;;;;;;;;;18.29;17.00;;;;;17.84;48.78;98361.75;5623223;28;6492335;-58
2021/04/02 02:24:26;;;;;;;;;21.86;19.86;;;;;17.83;48.81;98364.78;5614388;28;6496006;-59
2021/04/02 02:27:33;;;;;;;;;22.83;18.00;;;;;17.77;49.32;98366.72;5625167;28;5747046;-59
2021/04/02 02:30:44;;;;;;;;;20.83;19.33;;;;;17.79;49.28;98361.78;5638279;28;5768226;-59
2021/04/02 02:34:06;;;;;;;;;23.00;18.40;;;;;17.80;49.22;98366.13;5618237;28;6513675;-59
2021/04/02 02:37:18;;;;;;;;;23.29;20.43;;;;;17.77;49.33;98369.44;5594316;28;6516141;-59
2021/04/02 02:40:33;;;;;;;;;21.00;20.00;;;;;17.79;49.24;98363.72;5607322;28;5766938;-59
2021/04/02 02:43:40;;;;;;;;;22.00;21.00;;;;;17.79;49.62;98369.94;5575997;28;4445032;-59
2021/04/02 02:46:46;;;;;;;;;23.71;21.43;;;;;17.77;49.60;98372.16;5578494;28;5781381;-59
2021/04/02 02:49:57;;;;;;;;;23.86;21.00;;;;;17.69;49.38;98372.75;5586234;28;6512942;-59
2021/04/02 02:53:06;;;;;;;;;23.67;20.00;;;;;17.51;49.92;98378.78;5577090;28;5762676;-59
2021/04/02 02:56:16;;;;;;;;;25.86;21.71;;;;;17.42;49.90;98380.44;5575037;28;6508471;-59
2021/04/02 02:59:27;;;;;;;;;22.86;20.86;;;;;17.38;50.00;98391.09;5584117;28;6498079;-59
2021/04/02 03:02:36;;;;;;;;;23.00;21.00;;;;;17.39;50.07;98384.56;5621770;28;6513619;-59
2021/04/02 03:05:48;;;;;;;;;27.00;22.71;;;;;17.36;50.09;98384.28;5590821;28;5796331;-59
2021/04/02 03:08:57;;;;;;;;;24.86;21.14;;;;;17.32;50.22;98384.84;5549483;28;5786739;-59
2021/04/02 03:12:07;;;;;;;;;24.00;22.00;;;;;17.37;50.08;98384.00;5571559;28;4277780;-59
2021/04/02 03:15:19;;;;;;;;;25.29;23.00;;;;;17.38;50.11;98387.56;5583270;28;6532445;-59
2021/04/02 03:18:26;;;;;;;;;27.00;24.33;;;;;17.38;50.13;98391.09;5588287;28;4354398;-59
2021/04/02 03:21:34;;;;;;;;;31.00;26.71;;;;;17.42;50.53;98388.63;5550564;28;6573392;-59
2021/04/02 03:24:51;;;;;;;;;25.00;22.00;;;;;17.45;50.35;98377.16;5580652;28;4159579;-59
2021/04/02 03:28:04;;;;;;;;;25.71;23.00;;;;;17.44;50.39;98387.28;5565628;28;6507390;-58
2021/04/02 03:31:20;;;;;;;;;27.29;25.00;;;;;17.37;50.43;98370.38;5562484;28;6487698;-59
2021/04/02 03:34:32;;;;;;;;;24.75;23.00;;;;;17.48;50.35;98390.25;5602340;28;6523073;-59
2021/04/02 03:37:42;;;;;;;;;30.33;25.33;;;;;17.50;50.04;98388.03;5592580;28;5776205;-59
2021/04/02 03:40:51;;;;;;;;;26.71;23.29;;;;;17.51;49.67;98389.69;5586920;28;6504687;-59
2021/04/02 03:43:58;;;;;;;;;29.57;25.00;;;;;17.58;49.25;98392.94;5582425;28;6541814;-59
2021/04/02 03:47:13;;;;;;;;;30.00;27.33;;;;;17.52;49.41;98394.03;5583342;28;5783820;-59
2021/04/02 03:50:24;;;;;;;;;34.00;29.88;;;;;17.55;49.31;98398.94;5590640;28;7318210;-59
2021/04/02 03:53:36;;;;;;;;;43.29;35.00;;;;;17.52;48.71;98407.66;5565648;28;6565757;-59
2021/04/02 03:56:51;;;;;;;;;38.57;32.57;;;;;17.42;48.86;98411.25;5581875;28;5795076;-59
2021/04/02 04:00:09;;;;;;;;;41.43;33.14;;;;;17.44;48.78;98413.69;5586991;28;6554325;-58
2021/04/02 04:03:22;;;;;;;;;43.50;34.75;;;;;17.46;49.07;98417.78;5593767;28;7313663;-59
2021/04/02 04:06:34;;;;;;;;;44.38;35.50;;;;;17.47;48.58;98416.69;5563206;28;6531455;-59
2021/04/02 04:09:46;;;;;;;;;41.29;34.00;;;;;17.30;48.88;98413.44;5574542;28;6576162;-59
2021/04/02 04:13:00;;;;;;;;;42.83;33.58;;;;;17.15;49.29;98416.22;5573386;28;7332372;-59
2021/04/02 04:16:08;;;;;;;;;38.86;32.43;;;;;17.05;49.44;98430.69;5595241;28;6540761;-59
2021/04/02 04:19:20;;;;;;;;;35.60;31.20;;;;;17.06;49.15;98435.00;5590654;28;6535540;-59
2021/04/02 04:22:31;;;;;;;;;25.43;23.29;;;;;16.93;48.39;98434.75;5602012;28;5796079;-59
2021/04/02 04:25:43;;;;;;;;;22.00;18.00;;;;;16.88;47.90;98447.31;5594406;28;5743930;-59
2021/04/02 04:28:51;;;;;;;;;13.00;12.00;;;;;16.80;47.00;98455.19;5623219;28;4957595;-59
2021/04/02 04:32:00;;;;;;;;;12.33;11.83;;;;;16.75;46.57;98464.19;5623749;28;5683500;-59
2021/04/02 04:35:04;;;;;;;;;15.00;13.33;;;;;16.69;46.26;98469.88;5590704;28;3859602;-59
2021/04/02 04:38:12;;;;;;;;;12.00;10.00;;;;;16.48;46.68;98467.13;5622624;28;5663693;-59
2021/04/02 04:41:19;;;;;;;;;7.00;7.00;;;;;16.43;46.08;98480.72;5641564;28;4856786;-59
2021/04/02 04:44:26;;;;;;;;;5.00;5.00;;;;;16.36;45.89;98487.50;5638482;28;4125322;-59
2021/04/02 04:47:29;;;;;;;;;5.67;5.00;;;;;16.15;46.35;98488.53;5620852;28;4163737;-59
2021/04/02 04:50:32;;;;;;;;;5.60;4.60;;;;;14.38;46.57;98229.69;5624384;28;4884533;-59
2021/04/02 04:53:40;;;;;;;;;4.67;4.67;;;;;16.13;46.94;98505.09;5634792;28;4871162;-59
2021/04/02 04:56:45;;;;;;;;;5.60;5.00;;;;;15.70;46.94;98470.94;5639934;28;4857471;-59
2021/04/02 04:59:51;;;;;;;;;7.00;6.00;;;;;15.91;46.97;98513.47;5640547;28;4850195;-59
2021/04/02 05:02:55;;;;;;;;;5.00;5.00;;;;;15.82;46.92;98520.50;5640821;28;4853675;-59
2021/04/02 05:06:00;;;;;;;;;5.00;5.00;;;;;15.71;46.97;98517.97;5648444;28;4859569;-59
2021/04/02 05:09:05;;;;;;;;;5.00;5.00;;;;;15.52;47.06;98529.28;5631332;27;4859562;-58
2021/04/02 05:12:12;;;;;;;;;6.00;5.00;;;;;15.50;46.74;98539.56;5648468;28;4858902;-59
2021/04/02 05:15:16;;;;;;;;;5.00;4.00;;;;;15.20;47.03;98508.66;5656212;28;4856465;-59
2021/04/02 05:18:31;;;;;;;;;5.80;5.80;;;;;15.36;47.11;98549.22;5652520;28;4867920;-59
2021/04/02 05:21:41;;;;;;;;;6.40;6.00;;;;;15.31;46.83;98561.94;5654628;28;4142037;-59
2021/04/02 05:24:43;;;;;;;;;7.60;7.60;;;;;15.20;47.03;98547.47;5637308;28;4877278;-59
2021/04/02 05:27:49;;;;;;;;;8.00;8.00;;;;;15.21;46.93;98556.44;5646420;28;4887039;-59
2021/04/02 05:30:51;;;;;;;;;7.00;7.00;;;;;15.12;47.12;98562.34;5638771;28;4857500;-59
2021/04/02 05:33:56;;;;;;;;;8.00;8.00;;;;;15.15;47.18;98566.44;5651530;28;4087742;-59
2021/04/02 05:37:00;;;;;;;;;8.33;8.33;;;;;15.09;47.18;98571.03;5642875;28;4886724;-59
2021/04/02 05:40:03;;;;;;;;;9.00;8.00;;;;;15.06;47.48;98578.84;5652708;28;3638812;-59
2021/04/02 05:43:16;;;;;;;;;8.00;8.00;;;;;15.13;47.13;98591.16;5648084;28;4861661;-59
2021/04/02 05:46:25;;;;;;;;;10.33;10.00;;;;;15.13;47.00;98596.59;5629332;28;4953357;-59
2021/04/02 05:49:31;;;;;;;;;12.00;9.00;;;;;15.07;46.43;98600.31;5645182;28;4889813;-59
2021/04/02 05:52:40;;;;;;;;;11.80;11.00;;;;;15.00;46.43;98599.69;5647162;28;4938777;-58
2021/04/02 05:55:46;;;;;;;;;12.17;10.67;;;;;14.89;46.10;98621.59;5648963;28;5678283;-59
2021/04/02 05:58:52;;;;;;;;;10.00;9.00;;;;;14.78;45.95;98620.66;5642472;28;4918963;-59
2021/04/02 06:01:56;;;;;;;;;9.40;9.00;;;;;14.71;45.57;98609.16;5629253;28;4889801;-58
2021/04/02 06:05:01;;;;;;;;;10.00;9.20;;;;;14.58;45.97;98610.41;5648624;28;4331443;-59
2021/04/02 06:08:07;;;;;;;;;7.20;7.00;;;;;14.48;45.82;98618.41;5648297;28;4880426;-59
2021/04/02 06:11:12;;;;;;;;;8.60;8.00;;;;;14.48;46.09;98617.59;5648255;28;4866873;-58
2021/04/02 06:14:17;;;;;;;;;8.00;7.40;;;;;14.42;45.67;98616.72;5645649;28;4878326;-59
2021/04/02 06:17:23;;;;;;;;;8.40;8.00;;;;;14.38;46.89;98631.84;5638368;28;4864798;-59
2021/04/02 06:20:28;;;;;;;;;9.40;9.00;;;;;14.32;45.74;98624.69;5632736;28;4902288;-59
2021/04/02 06:23:34;;;;;;;;;9.33;8.00;;;;;14.27;45.90;98630.03;5626697;28;4872453;-58
2021/04/02 06:26:40;;;;;;;;;9.00;9.00;;;;;14.23;46.42;98627.03;5653062;28;4886649;-58
2021/04/02 06:29:47;;;;;;;;;10.00;9.00;;;;;14.26;46.32;98617.59;5649546;28;5607469;-59
2021/04/02 06:32:54;;;;;;;;;9.00;9.00;;;;;14.29;46.03;98608.94;5642563;28;4887730;-59
2021/04/02 06:35:59;;;;;;;;;8.83;8.00;;;;;14.22;44.90;98611.81;5618753;28;4875211;-58
2021/04/02 06:39:05;;;;;;;;;8.00;8.00;;;;;14.36;44.14;98636.72;5645310;28;4886636;-59
2021/04/02 06:42:11;;;;;;;;;6.60;6.40;;;;;14.30;43.90;98643.13;5652078;28;4845000;-58
2021/04/02 06:45:16;;;;;;;;;9.00;8.00;;;;;14.34;43.44;98641.53;5638069;28;4892239;-58
2021/04/02 06:48:20;;;;;;;;;6.00;5.60;;;;;14.31;43.18;98651.00;5637065;28;4851252;-59
2021/04/02 06:51:27;;;;;;;;;6.44;6.22;;;;;14.28;42.90;98653.38;5645758;28;4865793;-59
2021/04/02 06:54:52;;;;;;;;;8.00;8.00;;;;;14.25;42.84;98643.88;5635709;28;4874150;-58
2021/04/02 06:57:56;;;;;;;;;9.00;9.00;;;;;14.09;42.93;98646.63;5642064;28;4491845;-58
2021/04/02 07:01:04;;;;;;;;;9.00;8.40;;;;;14.29;42.93;98644.19;5644348;28;4874176;-58
2021/04/02 07:04:11;;;;;;;;;11.00;10.00;;;;;14.30;42.91;98643.94;5642297;28;4935724;-59
2021/04/02 07:07:17;;;;;;;;;10.00;9.40;;;;;14.38;43.36;98650.00;5643438;28;4906491;-58
2021/04/02 07:10:22;;;;;;;;;11.00;10.20;;;;;14.42;42.72;98662.00;5636412;28;4942903;-59
2021/04/02 07:13:39;;;;;;;;;14.00;13.00;;;;;14.42;42.70;98653.84;5643232;28;4950216;-59
2021/04/02 07:16:46;;;;;;;;;9.60;9.60;;;;;14.57;42.49;98673.03;5630703;28;4898102;-59
2021/04/02 07:19:52;;;;;;;;;7.00;7.00;;;;;14.53;42.24;98671.91;5667590;28;4864754;-58
2021/04/02 07:22:57;;;;;;;;;8.00;8.00;;;;;14.48;41.98;98682.69;5635787;28;4878335;-59
2021/04/02 07:26:02;;;;;;;;;8.00;8.00;;;;;14.43;42.33;98690.75;5645020;28;5589788;-59
2021/04/02 07:29:22;;;;;;;;;11.57;10.57;;;;;14.38;42.41;98706.97;5624871;28;5688786;-59
2021/04/02 07:32:29;;;;;;;;;11.00;10.80;;;;;14.37;42.65;98710.78;5620882;28;4954406;-59
2021/04/02 07:35:37;;;;;;;;;13.71;12.71;;;;;14.27;42.66;98692.41;5644343;28;6448463;-59
2021/04/02 07:38:49;;;;;;;;;8.60;8.60;;;;;14.42;42.49;98724.38;5645153;28;4880458;-59
2021/04/02 07:41:54;;;;;;;;;8.60;8.00;;;;;14.37;42.89;98730.56;5643861;28;4886680;-59
2021/04/02 07:44:59;;;;;;;;;8.00;8.00;;;;;14.32;42.50;98723.13;5639050;28;5579709;-59
2021/04/02 07:48:15;;;;;;;;;8.00;8.00;;;;;14.32;42.68;98736.69;5637188;28;4871011;-59
2021/04/02 07:51:20;;;;;;;;;8.60;8.60;;;;;14.39;42.42;98730.31;5634429;28;4870997;-59
2021/04/02 07:54:41;;;;;;;;;7.00;6.83;;;;;14.00;41.60;98700.44;5622627;28;4154413;-59
2021/04/02 07:57:56;;;;;;;;;8.40;7.00;;;;;14.07;42.02;98703.00;5642561;28;4872097;-59
2021/04/02 08:01:01;;;;;;;;;6.80;6.80;;;;;14.30;41.62;98738.03;5633354;28;4861654;-59
2021/04/02 08:04:05;;;;;;;;;10.00;9.00;;;;;14.28;41.29;98754.53;5636052;28;5616836;-59
2021/04/02 08:07:13;;;;;;;;;8.80;8.80;;;;;14.31;41.50;98753.25;5643121;28;4878366;-58
2021/04/02 08:10:20;;;;;;;;;9.00;9.00;;;;;14.34;41.33;98755.44;5643468;28;4865888;-59
2021/04/02 08:13:25;;;;;;;;;9.80;9.80;;;;;14.30;40.90;98755.13;5636268;28;4930473;-58
2021/04/02 08:16:53;;;;;;;;;11.00;10.60;;;;;14.33;40.81;98756.50;5664716;28;4941197;-59
2021/04/02 08:20:03;;;;;;;;;9.44;8.00;;;;;14.36;41.03;98764.19;5664296;28;4877738;-59
2021/04/02 08:23:08;;;;;;;;;8.60;8.40;;;;;14.32;40.75;98765.69;5646601;28;4886645;-59
2021/04/02 08:26:13;;;;;;;;;10.00;9.00;;;;;14.35;40.68;98772.53;5637146;28;5642237;-59
2021/04/02 08:29:23;;;;;;;;;12.00;10.00;;;;;14.42;40.11;98774.03;5647858;28;4944988;-58
2021/04/02 08:32:28;;;;;;;;;7.00;7.00;;;;;14.54;40.13;98784.78;5646376;28;4880427;-59
2021/04/02 08:35:32;;;;;;;;;9.40;9.40;;;;;14.64;39.91;98782.22;5638882;28;4914141;-59
2021/04/02 08:38:36;;;;;;;;;11.00;9.00;;;;;14.66;39.82;98775.44;5637072;28;3146084;-59
2021/04/02 08:41:41;;;;;;;;;10.60;10.00;;;;;14.76;39.89;98773.97;5646112;28;4949178;-58
2021/04/02 08:44:48;;;;;;;;;11.00;10.00;;;;;14.71;39.02;98778.22;5647210;28;5665792;-59
2021/04/02 08:47:52;;;;;;;;;10.00;9.00;;;;;14.69;39.71;98782.28;5647875;28;4193975;-58
2021/04/02 08:50:58;;;;;;;;;11.40;10.00;;;;;14.61;39.54;98782.72;5650864;28;4927324;-59
2021/04/02 08:54:05;;;;;;;;;11.50;11.00;;;;;14.48;39.97;98777.63;5628867;28;4957607;-58
2021/04/02 08:57:11;;;;;;;;;9.83;9.83;;;;;14.48;39.82;98766.78;5637606;28;5653308;-59
2021/04/02 09:00:16;;;;;;;;;8.00;7.00;;;;;14.64;39.58;98774.06;5647689;28;4148133;-59
2021/04/02 09:03:19;;;;;;;;;8.40;7.40;;;;;14.68;40.04;98773.31;5639015;28;4874665;-59
2021/04/02 09:06:25;;;;;;;;;9.00;9.00;;;;;14.73;39.07;98778.00;5649079;28;4867170;-59
2021/04/02 09:09:32;;;;;;;;;9.00;8.00;;;;;14.72;39.10;98787.19;5650998;28;4871083;-59
2021/04/02 09:12:38;;;;;;;;;9.00;9.00;;;;;14.79;39.30;98781.59;5659251;28;4886756;-59
2021/04/02 09:15:46;;;;;;;;;11.00;10.00;;;;;14.70;39.09;98749.47;5640672;28;4220983;-59
2021/04/02 09:18:52;;;;;;;;;10.00;10.00;;;;;14.90;39.52;98794.25;5638975;28;4947109;-59
2021/04/02 09:22:00;;;;;;;;;10.33;10.00;;;;;14.87;38.83;98784.69;5646328;28;4936131;-60
2021/04/02 09:25:07;;;;;;;;;10.60;9.00;;;;;14.99;38.94;98787.28;5623279;28;4910602;-59
2021/04/02 09:28:12;;;;;;;;;10.17;10.17;;;;;14.84;38.90;98760.78;5624925;28;4951374;-59
2021/04/02 09:31:21;;;;;;;;;10.00;10.00;;;;;15.12;39.17;98798.59;5640858;28;5664852;-59
2021/04/02 09:34:28;;;;;;;;;12.67;11.33;;;;;15.14;38.65;98801.06;5645977;28;4935605;-58
2021/04/02 09:37:35;;;;;;;;;11.83;10.00;;;;;15.22;38.13;98791.63;5632943;28;5705398;-59
2021/04/02 09:40:45;;;;;;;;;13.00;12.83;;;;;15.23;38.20;98788.66;5645773;28;5691860;-58
2021/04/02 09:43:53;;;;;;;;;10.17;10.17;;;;;15.34;38.37;98782.28;5644865;28;5673104;-59
2021/04/02 09:47:04;;;;;;;;;12.00;11.00;;;;;15.36;37.38;98785.56;5633301;28;4961687;-60
2021/04/02 09:50:11;;;;;;;;;13.00;11.00;;;;;15.41;36.80;98785.59;5645453;28;4949664;-59
2021/04/02 09:53:18;;;;;;;;;12.00;11.00;;;;;15.46;37.35;98791.09;5617647;28;5704308;-59
2021/04/02 09:56:23;;;;;;;;;12.00;10.00;;;;;15.58;37.14;98783.66;5644845;28;5678316;-59
2021/04/02 09:59:29;;;;;;;;;11.00;10.17;;;;;15.67;36.52;98781.28;5646409;28;5657513;-59
2021/04/02 10:02:36;;;;;;;;;11.00;9.17;;;;;15.78;35.38;98774.88;5627021;28;5626233;-59
2021/04/02 10:05:41;;;;;;;;;10.40;10.40;;;;;15.98;35.52;98780.47;5645780;28;4930424;-60
2021/04/02 10:08:47;;;;;;;;;12.17;11.00;;;;;16.19;35.01;98778.75;5628642;28;5679309;-60
2021/04/02 10:11:52;;;;;;;;;11.00;10.00;;;;;16.61;33.92;98780.72;5645648;28;4931810;-59
2021/04/02 10:14:58;;;;;;;;;11.00;11.00;;;;;16.81;32.89;98772.66;5645561;28;4919991;-59
2021/04/02 10:18:01;;;;;;;;;9.60;9.00;;;;;17.10;32.41;98779.31;5634189;28;4888812;-60
2021/04/02 10:21:07;;;;;;;;;11.00;10.83;;;;;17.33;32.46;98781.56;5646772;28;4959578;-60
2021/04/02 10:24:14;;;;;;;;;12.00;11.00;;;;;17.73;32.31;98783.63;5649765;28;4945035;-59
2021/04/02 10:27:20;;;;;;;;;12.33;11.00;;;;;17.94;30.85;98775.44;5646972;28;5685611;-60
2021/04/02 10:30:26;;;;;;;;;10.17;9.67;;;;;18.04;30.90;98775.44;5638347;28;4916847;-60
2021/04/02 10:33:31;;;;;;;;;12.17;11.00;;;;;18.15;30.36;98766.97;5653048;28;4951305;-59
2021/04/02 10:36:37;;;;;;;;;10.83;10.83;;;;;18.74;29.75;98769.09;5646779;28;5673114;-59
2021/04/02 10:39:48;;;;;;;;;13.60;12.00;;;;;18.92;30.11;98757.56;5645769;28;4962698;-59
2021/04/02 10:42:55;;;;;;;;;10.67;10.67;;;;;19.47;27.89;98769.38;5646186;28;5697063;-59
2021/04/02 10:46:01;;;;;;;;;10.00;10.00;;;;;20.82;26.85;98768.50;5647031;28;4945014;-60
2021/04/02 10:49:05;;;;;;;;;10.00;10.00;;;;;21.63;25.55;98766.69;5638772;28;4938738;-60
2021/04/02 10:52:12;;;;;;;;;10.00;10.00;;;;;22.70;24.84;98764.69;5630202;28;5668925;-59
2021/04/02 10:55:17;;;;;;;;;9.40;9.40;;;;;23.27;23.95;98766.00;5639747;28;4899180;-59
2021/04/02 10:58:20;;;;;;;;;11.80;10.80;;;;;23.54;24.70;98769.88;5621680;28;4938729;-61
2021/04/02 11:01:26;;;;;;;;;10.00;9.00;;;;;23.13;23.76;98767.13;5629109;28;5631446;-60
2021/04/02 11:04:32;;;;;;;;;11.00;10.50;;;;;22.89;24.30;98767.34;5644764;28;5681429;-60
2021/04/02 11:07:39;;;;;;;;;11.33;10.00;;;;;22.64;24.24;98767.78;5645666;28;5661969;-61
2021/04/02 11:10:43;;;;;;;;;10.67;9.67;;;;;22.12;24.96;98758.81;5634723;28;4198087;-60
2021/04/02 11:13:48;;;;;;;;;11.00;10.00;;;;;21.86;24.52;98760.31;5630911;28;5651158;-60
2021/04/02 11:16:54;;;;;;;;;12.00;12.00;;;;;22.42;23.79;98752.81;5646500;28;5695994;-60
2021/04/02 11:19:59;;;;;;;;;10.00;8.60;;;;;22.67;22.75;98729.53;5603944;28;4917911;-60
2021/04/02 11:23:06;;;;;;;;;9.44;9.00;;;;;23.39;21.71;98748.16;5616893;28;5616792;-59
2021/04/02 11:26:14;;;;;;;;;10.83;10.83;;;;;23.86;22.07;98744.88;5622080;28;5680406;-59
2021/04/02 11:29:16;;;;;;;;;9.40;9.00;;;;;24.39;21.59;98744.13;5622052;28;4902282;-59
2021/04/02 11:32:21;;;;;;;;;9.00;9.00;;;;;24.78;20.26;98735.88;5651701;28;4199167;-59
2021/04/02 11:35:27;;;;;;;;;10.60;10.00;;;;;25.07;20.15;98732.63;5646433;28;4943956;-59
2021/04/02 11:38:32;;;;;;;;;10.80;9.80;;;;;25.39;19.57;98729.47;5647240;28;4938761;-59
2021/04/02 11:41:35;;;;;;;;;9.00;9.00;;;;;25.68;19.53;98728.84;5618020;28;4292866;-59
2021/04/02 11:44:40;;;;;;;;;9.00;9.00;;;;;25.89;18.80;98717.97;5625644;28;4848504;-59
2021/04/02 11:47:44;;;;;;;;;10.00;8.00;;;;;25.99;19.15;98716.84;5616181;28;4910650;-59
2021/04/02 11:50:48;;;;;;;;;10.20;9.00;;;;;26.14;18.90;98713.56;5618697;28;4900206;-59
2021/04/02 11:53:53;;;;;;;;;8.00;8.00;;;;;26.26;18.47;98705.44;5646057;28;4861026;-60
2021/04/02 11:56:59;;;;;;;;;9.33;8.83;;;;;26.02;18.25;98697.66;5617832;28;5603303;-59
2021/04/02 12:00:06;;;;;;;;;10.60;10.00;;;;;25.91;18.88;98687.25;5616421;28;4936682;-60
2021/04/02 12:03:16;;;;;;;;;10.00;10.00;;;;;25.97;18.99;98686.75;5622156;28;5664763;-59
2021/04/02 12:06:20;;;;;;;;;9.00;9.00;;;;;26.02;19.56;98683.03;5626846;28;4385580;-59
2021/04/02 12:09:25;;;;;;;;;10.00;9.33;;;;;26.23;19.00;98686.75;5626741;28;5649113;-59
2021/04/02 12:12:34;;;;;;;;;12.00;11.00;;;;;26.10;18.78;98671.94;5627655;28;4954374;-59
2021/04/02 12:15:41;;;;;;;;;9.00;9.00;;;;;26.29;19.12;98683.47;5649887;28;3815313;-59
2021/04/02 12:18:44;;;;;;;;;12.00;11.00;;;;;26.13;17.89;98673.25;5600066;28;3188323;-59
2021/04/02 12:21:49;;;;;;;;;9.80;9.00;;;;;26.11;19.20;98672.75;5609790;28;4902260;-59
2021/04/02 12:24:55;;;;;;;;;9.00;9.00;;;;;25.93;18.32;98654.59;5649462;28;4876248;-60
2021/04/02 12:28:02;;;;;;;;;10.00;10.00;;;;;25.93;19.14;98662.88;5626664;28;4938802;-60
2021/04/02 12:31:06;;;;;;;;;10.00;8.60;;;;;26.07;19.89;98660.75;5636825;28;4082454;-60
2021/04/02 12:34:09;;;;;;;;;9.40;9.40;;;;;25.99;18.29;98648.59;5622484;28;4907496;-60
2021/04/02 12:37:19;;;;;;;;;11.67;10.33;;;;;26.10;19.13;98657.31;5609662;28;5671324;-59
2021/04/02 12:40:25;;;;;;;;;10.00;9.00;;;;;26.04;19.35;98653.13;5610049;28;4902266;-60
2021/04/02 12:43:33;;;;;;;;;11.67;11.00;;;;;25.87;18.67;98654.78;5626106;28;5698126;-59
2021/04/02 12:46:38;;;;;;;;;11.60;11.00;;;;;25.73;19.17;98640.34;5629457;28;4941891;-59
2021/04/02 12:49:44;;;;;;;;;11.00;9.60;;;;;25.41;18.67;98649.88;5634431;28;4917216;-59
2021/04/02 12:52:50;;;;;;;;;10.83;10.83;;;;;25.36;19.74;98632.72;5628070;28;5681463;-58
2021/04/02 12:55:59;;;;;;;;;10.00;10.00;;;;;25.42;20.43;98632.19;5620699;28;4947099;-59
2021/04/02 12:59:05;;;;;;;;;11.00;10.00;;;;;25.56;20.11;98617.47;5631962;28;4927291;-60
2021/04/02 13:02:11;;;;;;;;;10.00;10.00;;;;;25.60;19.35;98622.00;5622288;28;4942920;-60
2021/04/02 13:05:17;;;;;;;;;11.00;10.33;;;;;25.42;18.92;98615.66;5613957;28;5672074;-60
2021/04/02 13:08:23;;;;;;;;;12.00;10.67;;;;;25.36;18.75;98602.34;5628594;28;4951311;-59
2021/04/02 13:11:29;;;;;;;;;10.67;10.00;;;;;25.13;19.26;98607.19;5627318;28;4953351;-60
2021/04/02 13:14:37;;;;;;;;;15.33;13.33;;;;;25.12;19.38;98605.56;5609800;28;5710610;-59
2021/04/02 13:17:45;;;;;;;;;11.83;11.83;;;;;24.98;19.31;98607.66;5627848;28;5689770;-59
2021/04/02 13:20:51;;;;;;;;;10.40;10.40;;;;;24.87;19.51;98596.16;5626233;28;4949170;-60
2021/04/02 13:23:57;;;;;;;;;13.50;12.00;;;;;24.98;20.72;98597.44;5626288;28;5692858;-59
2021/04/02 13:27:04;;;;;;;;;11.17;11.17;;;;;24.91;20.05;98591.63;5630676;28;5691868;-59
2021/04/02 13:30:13;;;;;;;;;11.00;11.00;;;;;24.68;19.48;98592.03;5628803;28;4963826;-59
2021/04/02 13:33:19;;;;;;;;;11.00;11.00;;;;;24.60;20.05;98588.94;5623068;28;5693889;-59
2021/04/02 13:36:24;;;;;;;;;14.33;12.83;;;;;24.58;19.60;98577.41;5600805;28;5710606;-58
2021/04/02 13:39:30;;;;;;;;;11.00;10.67;;;;;24.72;20.23;98573.72;5609487;28;4954480;-59
2021/04/02 13:42:36;;;;;;;;;10.67;10.00;;;;;24.86;20.50;98571.63;5629984;28;4960381;-59
2021/04/02 13:45:43;;;;;;;;;11.50;10.50;;;;;25.03;20.09;98575.22;5624929;28;5705406;-59
2021/04/02 13:48:48;;;;;;;;;10.80;10.20;;;;;25.12;19.46;98560.66;5624514;28;4945323;-59
2021/04/02 13:51:54;;;;;;;;;11.20;10.20;;;;;25.07;18.04;98563.56;5624571;28;4941208;-59
2021/04/02 13:54:58;;;;;;;;;10.00;9.00;;;;;24.82;17.53;98567.91;5622541;28;5618911;-59
2021/04/02 13:58:01;;;;;;;;;9.00;8.00;;;;;24.78;18.83;98556.69;5607337;28;4866258;-60
2021/04/02 14:01:07;;;;;;;;;11.00;10.40;;;;;24.78;18.13;98562.19;5608638;28;4941855;-59
2021/04/02 14:04:10;;;;;;;;;8.00;8.00;;;;;24.78;19.30;98553.09;5627488;28;4872046;-59
2021/04/02 14:07:15;;;;;;;;;8.00;8.00;;;;;24.75;18.73;98554.56;5628763;28;4872113;-59
2021/04/02 14:10:24;;;;;;;;;9.00;8.00;;;;;24.66;18.18;98544.69;5617231;28;4886672;-59
2021/04/02 14:13:28;;;;;;;;;8.00;8.00;;;;;24.73;19.01;98547.78;5637329;28;4173153;-59
2021/04/02 14:16:34;;;;;;;;;10.00;8.00;;;;;24.67;18.08;98536.09;5624910;28;4887903;-59
2021/04/02 14:19:37;;;;;;;;;7.60;7.60;;;;;24.62;17.88;98527.97;5627710;28;4848120;-59
2021/04/02 14:22:41;;;;;;;;;7.00;7.00;;;;;24.13;18.36;98466.59;5630035;28;4873134;-60
2021/04/02 14:25:44;;;;;;;;;9.00;8.00;;;;;24.52;18.10;98520.84;5621815;28;4870014;-59
2021/04/02 14:28:49;;;;;;;;;8.80;8.40;;;;;24.42;18.32;98512.06;5622434;28;4864806;-59
2021/04/02 14:31:56;;;;;;;;;11.00;9.17;;;;;24.32;18.33;98518.69;5609331;28;4929384;-59
2021/04/02 14:35:00;;;;;;;;;8.00;8.00;;;;;24.20;18.40;98517.66;5628263;28;4874149;-60
2021/04/02 14:38:07;;;;;;;;;8.50;8.00;;;;;23.91;18.76;98507.97;5620793;28;5596066;-59
2021/04/02 14:41:13;;;;;;;;;11.20;11.00;;;;;23.85;19.39;98506.47;5610555;28;4962721;-59
2021/04/02 14:44:37;;;;;;;;;10.00;10.00;;;;;23.81;19.06;98505.50;5626303;28;4934662;-59
2021/04/02 14:47:45;;;;;;;;;11.00;10.20;;;;;23.50;19.69;98515.72;5640903;28;4944999;-59